sensor_id;sensor_type;location;lat;lon;timestamp;pressure;altitude;pressure_sealevel;temperature;humidity
41898;BME280;27576;53.366;-1.498;2023-02-28T00:00:20;102091.50;;;4.88;100.00
41898;BME280;27576;53.366;-1.498;2023-02-28T00:02:46;102123.56;;;5.08;100.00
41898;BME280;27576;53.366;-1.498;2023-02-28T00:05:14;102086.16;;;4.85;100.00
41898;BME280;27576;53.366;-1.498;2023-02-28T00:07:40;102127.72;;;5.06;100.00
41898;BME280;27576;53.366;-1.498;2023-02-28T00:10:07;102119.66;;;5.00;100.00
41898;BME280;27576;53.366;-1.498;2023-02-28T00:12:34;102130.88;;;5.02;100.00
41898;BME280;27576;53.366;-1.498;2023-02-28T00:15:01;102112.06;;;4.88;100.00
41898;BME280;27576;53.366;-1.498;2023-02-28T00:17:26;102079.25;;;4.71;100.00
41898;BME280;27576;53.366;-1.498;2023-02-28T00:19:52;102089.81;;;4.75;100.00
41898;BME280;27576;53.366;-1.498;2023-02-28T00:22:19;102131.59;;;4.99;100.00
41898;BME280;27576;53.366;-1.498;2023-02-28T00:24:45;102102.25;;;4.82;100.00
41898;BME280;27576;53.366;-1.498;2023-02-28T00:27:10;102131.69;;;5.01;100.00
41898;BME280;27576;53.366;-1.498;2023-02-28T00:29:36;102134.19;;;4.99;100.00
41898;BME280;27576;53.366;-1.498;2023-02-28T00:32:02;102144.53;;;5.01;100.00
41898;BME280;27576;53.366;-1.498;2023-02-28T00:34:28;102122.22;;;4.86;100.00
41898;BME280;27576;53.366;-1.498;2023-02-28T00:36:54;102141.88;;;4.99;100.00
41898;BME280;27576;53.366;-1.498;2023-02-28T00:39:19;102140.88;;;4.97;100.00
41898;BME280;27576;53.366;-1.498;2023-02-28T00:41:44;102114.03;;;4.79;100.00
41898;BME280;27576;53.366;-1.498;2023-02-28T00:44:10;102134.66;;;4.93;100.00
41898;BME280;27576;53.366;-1.498;2023-02-28T00:46:36;102122.59;;;4.79;100.00
41898;BME280;27576;53.366;-1.498;2023-02-28T00:49:01;102123.59;;;4.81;100.00
41898;BME280;27576;53.366;-1.498;2023-02-28T00:51:26;102108.41;;;4.71;100.00
41898;BME280;27576;53.366;-1.498;2023-02-28T00:53:52;102143.97;;;4.91;100.00
41898;BME280;27576;53.366;-1.498;2023-02-28T00:56:17;102109.31;;;4.72;100.00
41898;BME280;27576;53.366;-1.498;2023-02-28T00:58:42;102063.78;;;4.42;100.00
41898;BME280;27576;53.366;-1.498;2023-02-28T01:01:08;102129.53;;;4.80;100.00
41898;BME280;27576;53.366;-1.498;2023-02-28T01:03:33;102065.56;;;4.43;100.00
41898;BME280;27576;53.366;-1.498;2023-02-28T01:05:59;102113.53;;;4.71;100.00
41898;BME280;27576;53.366;-1.498;2023-02-28T01:08:24;102132.13;;;4.80;100.00
41898;BME280;27576;53.366;-1.498;2023-02-28T01:10:51;102145.53;;;4.89;100.00
41898;BME280;27576;53.366;-1.498;2023-02-28T01:13:16;102143.75;;;4.88;100.00
41898;BME280;27576;53.366;-1.498;2023-02-28T01:15:50;102139.50;;;4.89;100.00
41898;BME280;27576;53.366;-1.498;2023-02-28T01:18:16;102120.47;;;4.72;100.00
41898;BME280;27576;53.366;-1.498;2023-02-28T01:20:41;102115.22;;;4.71;100.00
41898;BME280;27576;53.366;-1.498;2023-02-28T01:23:07;102130.22;;;4.78;100.00
41898;BME280;27576;53.366;-1.498;2023-02-28T01:25:36;102113.53;;;4.71;100.00
41898;BME280;27576;53.366;-1.498;2023-02-28T01:28:01;102141.06;;;4.87;100.00
41898;BME280;27576;53.366;-1.498;2023-02-28T01:30:27;102116.91;;;4.70;100.00
41898;BME280;27576;53.366;-1.498;2023-02-28T01:32:52;102133.47;;;4.75;100.00
41898;BME280;27576;53.366;-1.498;2023-02-28T01:35:18;102144.06;;;4.80;100.00
41898;BME280;27576;53.366;-1.498;2023-02-28T01:37:44;102110.97;;;4.58;100.00
41898;BME280;27576;53.366;-1.498;2023-02-28T01:40:09;102148.88;;;4.75;100.00
41898;BME280;27576;53.366;-1.498;2023-02-28T01:42:35;102144.56;;;4.74;100.00
41898;BME280;27576;53.366;-1.498;2023-02-28T01:45:39;102141.09;;;4.74;100.00
41898;BME280;27576;53.366;-1.498;2023-02-28T01:48:07;102143.56;;;4.72;100.00
41898;BME280;27576;53.366;-1.498;2023-02-28T01:50:39;102141.00;;;4.72;100.00
41898;BME280;27576;53.366;-1.498;2023-02-28T01:53:09;102116.13;;;4.58;100.00
41898;BME280;27576;53.366;-1.498;2023-02-28T01:55:37;102123.91;;;4.59;100.00
41898;BME280;27576;53.366;-1.498;2023-02-28T01:58:05;102134.50;;;4.64;100.00
41898;BME280;27576;53.366;-1.498;2023-02-28T02:00:32;102137.56;;;4.72;100.00
41898;BME280;27576;53.366;-1.498;2023-02-28T02:03:00;102121.53;;;4.62;100.00
41898;BME280;27576;53.366;-1.498;2023-02-28T02:05:30;102136.03;;;4.75;100.00
41898;BME280;27576;53.366;-1.498;2023-02-28T02:08:05;102111.38;;;4.64;100.00
41898;BME280;27576;53.366;-1.498;2023-02-28T02:10:35;102127.56;;;4.76;100.00
41898;BME280;27576;53.366;-1.498;2023-02-28T02:15:55;102127.16;;;4.70;100.00
41898;BME280;27576;53.366;-1.498;2023-02-28T02:18:33;102133.47;;;4.75;100.00
41898;BME280;27576;53.366;-1.498;2023-02-28T02:21:33;102104.28;;;4.60;100.00
41898;BME280;27576;53.366;-1.498;2023-02-28T02:32:49;102130.91;;;4.75;100.00
41898;BME280;27576;53.366;-1.498;2023-02-28T02:40:47;102115.72;;;4.65;100.00
41898;BME280;27576;53.366;-1.498;2023-02-28T02:43:56;102142.78;;;4.73;100.00
41898;BME280;27576;53.366;-1.498;2023-02-28T02:46:39;102053.53;;;4.29;100.00
41898;BME280;27576;53.366;-1.498;2023-02-28T02:49:08;102135.00;;;4.72;100.00
41898;BME280;27576;53.366;-1.498;2023-02-28T02:51:36;102136.56;;;4.70;100.00
41898;BME280;27576;53.366;-1.498;2023-02-28T02:54:25;102114.34;;;4.57;100.00
41898;BME280;27576;53.366;-1.498;2023-02-28T02:56:55;102137.34;;;4.68;100.00
41898;BME280;27576;53.366;-1.498;2023-02-28T02:59:22;102130.34;;;4.66;100.00
41898;BME280;27576;53.366;-1.498;2023-02-28T03:01:54;102117.81;;;4.57;100.00
41898;BME280;27576;53.366;-1.498;2023-02-28T03:04:22;102131.00;;;4.63;100.00
41898;BME280;27576;53.366;-1.498;2023-02-28T03:06:50;102132.69;;;4.63;100.00
41898;BME280;27576;53.366;-1.498;2023-02-28T03:09:22;102095.38;;;4.41;100.00
41898;BME280;27576;53.366;-1.498;2023-02-28T03:11:48;102078.69;;;4.35;100.00
41898;BME280;27576;53.366;-1.498;2023-02-28T03:17:24;102126.59;;;4.61;100.00
41898;BME280;27576;53.366;-1.498;2023-02-28T03:20:01;102130.84;;;4.60;100.00
41898;BME280;27576;53.366;-1.498;2023-02-28T03:33:14;102112.56;;;4.42;100.00
41898;BME280;27576;53.366;-1.498;2023-02-28T03:36:17;102134.75;;;4.55;100.00
41898;BME280;27576;53.366;-1.498;2023-02-28T03:39:04;102122.66;;;4.53;100.00
41898;BME280;27576;53.366;-1.498;2023-02-28T03:44:10;102100.91;;;4.34;100.00
41898;BME280;27576;53.366;-1.498;2023-02-28T03:46:44;102136.25;;;4.52;100.00
41898;BME280;27576;53.366;-1.498;2023-02-28T03:49:17;102128.66;;;4.53;100.00
41898;BME280;27576;53.366;-1.498;2023-02-28T03:51:45;102132.03;;;4.52;100.00
41898;BME280;27576;53.366;-1.498;2023-02-28T03:54:16;102121.25;;;4.45;100.00
41898;BME280;27576;53.366;-1.498;2023-02-28T03:56:50;102121.75;;;4.52;100.00
41898;BME280;27576;53.366;-1.498;2023-02-28T03:59:35;102125.97;;;4.52;100.00
41898;BME280;27576;53.366;-1.498;2023-02-28T04:02:01;102130.34;;;4.53;100.00
41898;BME280;27576;53.366;-1.498;2023-02-28T04:04:28;102080.97;;;4.30;100.00
41898;BME280;27576;53.366;-1.498;2023-02-28T04:07:01;102121.75;;;4.52;100.00
41898;BME280;27576;53.366;-1.498;2023-02-28T04:09:27;102116.22;;;4.46;100.00
41898;BME280;27576;53.366;-1.498;2023-02-28T04:11:53;102118.09;;;4.49;100.00
41898;BME280;27576;53.366;-1.498;2023-02-28T04:14:18;102106.75;;;4.45;100.00
41898;BME280;27576;53.366;-1.498;2023-02-28T04:16:44;102101.50;;;4.43;100.00
41898;BME280;27576;53.366;-1.498;2023-02-28T04:19:11;102102.19;;;4.41;100.00
41898;BME280;27576;53.366;-1.498;2023-02-28T04:21:39;102134.00;;;4.56;100.00
41898;BME280;27576;53.366;-1.498;2023-02-28T04:24:06;102106.44;;;4.40;100.00
41898;BME280;27576;53.366;-1.498;2023-02-28T04:26:36;102137.44;;;4.57;100.00
41898;BME280;27576;53.366;-1.498;2023-02-28T04:29:03;102125.00;;;4.50;100.00
41898;BME280;27576;53.366;-1.498;2023-02-28T04:31:29;102114.31;;;4.43;100.00
41898;BME280;27576;53.366;-1.498;2023-02-28T04:33:54;102130.63;;;4.57;100.00
41898;BME280;27576;53.366;-1.498;2023-02-28T04:36:19;102117.78;;;4.44;100.00
41898;BME280;27576;53.366;-1.498;2023-02-28T04:38:46;102138.44;;;4.59;100.00
41898;BME280;27576;53.366;-1.498;2023-02-28T04:41:14;102117.97;;;4.47;100.00
41898;BME280;27576;53.366;-1.498;2023-02-28T04:43:40;102142.59;;;4.57;100.00
41898;BME280;27576;53.366;-1.498;2023-02-28T04:46:06;102089.34;;;4.28;100.00
41898;BME280;27576;53.366;-1.498;2023-02-28T04:48:34;102135.78;;;4.57;100.00
41898;BME280;27576;53.366;-1.498;2023-02-28T04:51:09;102122.44;;;4.50;100.00
41898;BME280;27576;53.366;-1.498;2023-02-28T04:53:36;102146.84;;;4.56;100.00
41898;BME280;27576;53.366;-1.498;2023-02-28T04:56:02;102116.88;;;4.43;100.00
41898;BME280;27576;53.366;-1.498;2023-02-28T04:58:28;102143.56;;;4.59;100.00
41898;BME280;27576;53.366;-1.498;2023-02-28T05:01:01;102107.34;;;4.41;100.00
41898;BME280;27576;53.366;-1.498;2023-02-28T05:03:27;102110.19;;;4.46;100.00
41898;BME280;27576;53.366;-1.498;2023-02-28T05:05:53;102127.66;;;4.51;100.00
41898;BME280;27576;53.366;-1.498;2023-02-28T05:08:18;102136.66;;;4.58;100.00
41898;BME280;27576;53.366;-1.498;2023-02-28T05:10:43;102104.66;;;4.39;100.00
41898;BME280;27576;53.366;-1.498;2023-02-28T05:13:12;102144.44;;;4.59;100.00
41898;BME280;27576;53.366;-1.498;2023-02-28T05:15:38;102123.81;;;4.45;100.00
41898;BME280;27576;53.366;-1.498;2023-02-28T05:18:03;102115.81;;;4.40;100.00
41898;BME280;27576;53.366;-1.498;2023-02-28T05:20:28;102147.00;;;4.59;100.00
41898;BME280;27576;53.366;-1.498;2023-02-28T05:22:54;102061.81;;;4.12;100.00
41898;BME280;27576;53.366;-1.498;2023-02-28T05:25:21;102093.88;;;4.32;100.00
41898;BME280;27576;53.366;-1.498;2023-02-28T05:27:48;102136.66;;;4.58;100.00
41898;BME280;27576;53.366;-1.498;2023-02-28T05:30:14;102135.84;;;4.59;100.00
41898;BME280;27576;53.366;-1.498;2023-02-28T05:32:40;102141.78;;;4.58;100.00
41898;BME280;27576;53.366;-1.498;2023-02-28T05:35:10;102137.34;;;4.55;100.00
41898;BME280;27576;53.366;-1.498;2023-02-28T05:37:36;102116.00;;;4.43;100.00
41898;BME280;27576;53.366;-1.498;2023-02-28T05:40:03;102141.59;;;4.55;100.00
41898;BME280;27576;53.366;-1.498;2023-02-28T05:42:31;102141.59;;;4.55;100.00
41898;BME280;27576;53.366;-1.498;2023-02-28T05:44:56;102119.06;;;4.37;100.00
41898;BME280;27576;53.366;-1.498;2023-02-28T05:47:22;102120.84;;;4.38;100.00
41898;BME280;27576;53.366;-1.498;2023-02-28T05:49:47;102119.88;;;4.36;100.00
41898;BME280;27576;53.366;-1.498;2023-02-28T05:52:12;102139.59;;;4.51;100.00
41898;BME280;27576;53.366;-1.498;2023-02-28T05:54:38;102143.19;;;4.53;100.00
41898;BME280;27576;53.366;-1.498;2023-02-28T05:57:03;102144.06;;;4.53;100.00
41898;BME280;27576;53.366;-1.498;2023-02-28T05:59:28;102150.88;;;4.53;100.00
41898;BME280;27576;53.366;-1.498;2023-02-28T06:01:54;102111.09;;;4.33;100.00
41898;BME280;27576;53.366;-1.498;2023-02-28T06:04:20;102113.75;;;4.34;100.00
41898;BME280;27576;53.366;-1.498;2023-02-28T06:06:46;102127.97;;;4.42;100.00
41898;BME280;27576;53.366;-1.498;2023-02-28T06:09:12;102114.31;;;4.30;100.00
41898;BME280;27576;53.366;-1.498;2023-02-28T06:11:38;102114.63;;;4.35;100.00
41898;BME280;27576;53.366;-1.498;2023-02-28T06:14:04;102149.06;;;4.52;100.00
41898;BME280;27576;53.366;-1.498;2023-02-28T06:16:31;102127.16;;;4.43;100.00
41898;BME280;27576;53.366;-1.498;2023-02-28T06:18:58;102104.66;;;4.26;100.00
41898;BME280;27576;53.366;-1.498;2023-02-28T06:21:24;102142.09;;;4.49;100.00
41898;BME280;27576;53.366;-1.498;2023-02-28T06:23:49;102125.19;;;4.39;100.00
41898;BME280;27576;53.366;-1.498;2023-02-28T06:26:14;102107.44;;;4.29;100.00
41898;BME280;27576;53.366;-1.498;2023-02-28T06:28:40;102142.19;;;4.51;100.00
41898;BME280;27576;53.366;-1.498;2023-02-28T06:31:10;102146.34;;;4.49;100.00
41898;BME280;27576;53.366;-1.498;2023-02-28T06:33:37;102132.72;;;4.36;100.00
41898;BME280;27576;53.366;-1.498;2023-02-28T06:36:04;102063.56;;;4.00;100.00
41898;BME280;27576;53.366;-1.498;2023-02-28T06:38:30;102147.31;;;4.51;100.00
41898;BME280;27576;53.366;-1.498;2023-02-28T06:40:57;102145.25;;;4.45;100.00
41898;BME280;27576;53.366;-1.498;2023-02-28T06:43:24;102162.84;;;4.52;100.00
41898;BME280;27576;53.366;-1.498;2023-02-28T06:45:50;102161.91;;;4.52;100.00
41898;BME280;27576;53.366;-1.498;2023-02-28T06:48:16;102155.72;;;4.48;100.00
41898;BME280;27576;53.366;-1.498;2023-02-28T06:50:41;102141.78;;;4.45;100.00
41898;BME280;27576;53.366;-1.498;2023-02-28T06:53:07;102123.03;;;4.32;100.00
41898;BME280;27576;53.366;-1.498;2023-02-28T06:55:32;102138.59;;;4.35;100.00
41898;BME280;27576;53.366;-1.498;2023-02-28T06:57:58;102121.94;;;4.29;100.00
41898;BME280;27576;53.366;-1.498;2023-02-28T07:00:24;102134.28;;;4.34;100.00
41898;BME280;27576;53.366;-1.498;2023-02-28T07:02:50;102156.28;;;4.44;100.00
41898;BME280;27576;53.366;-1.498;2023-02-28T07:05:16;102142.97;;;4.36;100.00
41898;BME280;27576;53.366;-1.498;2023-02-28T07:07:42;102134.84;;;4.30;100.00
41898;BME280;27576;53.366;-1.498;2023-02-28T07:10:10;102143.72;;;4.35;100.00
41898;BME280;27576;53.366;-1.498;2023-02-28T07:12:37;102170.41;;;4.51;100.00
41898;BME280;27576;53.366;-1.498;2023-02-28T07:15:06;102160.66;;;4.45;100.00
41898;BME280;27576;53.366;-1.498;2023-02-28T07:17:31;102121.31;;;4.19;100.00
41898;BME280;27576;53.366;-1.498;2023-02-28T07:19:57;102160.34;;;4.40;100.00
41898;BME280;27576;53.366;-1.498;2023-02-28T07:22:22;102186.03;;;4.54;100.00
41898;BME280;27576;53.366;-1.498;2023-02-28T07:24:48;102173.47;;;4.45;100.00
41898;BME280;27576;53.366;-1.498;2023-02-28T07:27:13;102182.66;;;4.55;100.00
41898;BME280;27576;53.366;-1.498;2023-02-28T07:29:49;102177.72;;;4.45;100.00
41898;BME280;27576;53.366;-1.498;2023-02-28T07:32:14;102145.78;;;4.28;100.00
41898;BME280;27576;53.366;-1.498;2023-02-28T07:34:39;102164.38;;;4.37;100.00
41898;BME280;27576;53.366;-1.498;2023-02-28T07:37:05;102196.38;;;4.55;100.00
41898;BME280;27576;53.366;-1.498;2023-02-28T07:39:30;102144.13;;;4.28;100.00
41898;BME280;27576;53.366;-1.498;2023-02-28T07:41:55;102183.53;;;4.55;100.00
41898;BME280;27576;53.366;-1.498;2023-02-28T07:44:21;102159.34;;;4.38;100.00
41898;BME280;27576;53.366;-1.498;2023-02-28T07:46:47;102150.56;;;4.35;100.00
41898;BME280;27576;53.366;-1.498;2023-02-28T07:49:12;102160.16;;;4.37;100.00
41898;BME280;27576;53.366;-1.498;2023-02-28T07:51:37;102165.66;;;4.43;100.00
41898;BME280;27576;53.366;-1.498;2023-02-28T07:54:03;102164.69;;;4.41;100.00
41898;BME280;27576;53.366;-1.498;2023-02-28T07:56:28;102167.56;;;4.46;100.00
41898;BME280;27576;53.366;-1.498;2023-02-28T07:58:53;102164.78;;;4.43;100.00
41898;BME280;27576;53.366;-1.498;2023-02-28T08:01:19;102191.75;;;4.63;100.00
41898;BME280;27576;53.366;-1.498;2023-02-28T08:03:44;102175.97;;;4.57;100.00
41898;BME280;27576;53.366;-1.498;2023-02-28T08:06:16;102161.75;;;4.49;100.00
41898;BME280;27576;53.366;-1.498;2023-02-28T08:08:42;102195.53;;;4.68;100.00
41898;BME280;27576;53.366;-1.498;2023-02-28T08:11:07;102195.72;;;4.71;100.00
41898;BME280;27576;53.366;-1.498;2023-02-28T08:13:32;102168.56;;;4.61;100.00
41898;BME280;27576;53.366;-1.498;2023-02-28T08:15:58;102164.81;;;4.56;100.00
41898;BME280;27576;53.366;-1.498;2023-02-28T08:18:26;102167.88;;;4.64;100.00
41898;BME280;27576;53.366;-1.498;2023-02-28T08:20:51;102199.66;;;4.79;100.00
41898;BME280;27576;53.366;-1.498;2023-02-28T08:23:16;102193.75;;;4.80;100.00
41898;BME280;27576;53.366;-1.498;2023-02-28T08:25:42;102158.19;;;4.60;100.00
41898;BME280;27576;53.366;-1.498;2023-02-28T08:28:07;102189.09;;;4.75;100.00
41898;BME280;27576;53.366;-1.498;2023-02-28T08:30:32;102186.22;;;4.70;100.00
41898;BME280;27576;53.366;-1.498;2023-02-28T08:32:58;102149.56;;;4.59;100.00
41898;BME280;27576;53.366;-1.498;2023-02-28T08:35:23;102172.00;;;4.62;100.00
41898;BME280;27576;53.366;-1.498;2023-02-28T08:37:49;102198.69;;;4.77;100.00
41898;BME280;27576;53.366;-1.498;2023-02-28T08:40:15;102195.72;;;4.71;100.00
41898;BME280;27576;53.366;-1.498;2023-02-28T08:42:46;102184.66;;;4.72;100.00
41898;BME280;27576;53.366;-1.498;2023-02-28T08:45:12;102184.34;;;4.67;100.00
41898;BME280;27576;53.366;-1.498;2023-02-28T08:47:37;102191.38;;;4.70;100.00
41898;BME280;27576;53.366;-1.498;2023-02-28T08:50:04;102189.22;;;4.76;100.00
41898;BME280;27576;53.366;-1.498;2023-02-28T08:52:29;102208.94;;;4.90;100.00
41898;BME280;27576;53.366;-1.498;2023-02-28T08:54:55;102194.41;;;4.91;100.00
41898;BME280;27576;53.366;-1.498;2023-02-28T08:57:20;102208.56;;;4.98;100.00
41898;BME280;27576;53.366;-1.498;2023-02-28T08:59:45;102165.97;;;4.75;100.00
41898;BME280;27576;53.366;-1.498;2023-02-28T09:02:14;102211.41;;;5.02;100.00
41898;BME280;27576;53.366;-1.498;2023-02-28T09:04:40;102213.31;;;5.05;100.00
41898;BME280;27576;53.366;-1.498;2023-02-28T09:07:06;102184.66;;;4.85;100.00
41898;BME280;27576;53.366;-1.498;2023-02-28T09:09:31;102194.84;;;4.97;100.00
41898;BME280;27576;53.366;-1.498;2023-02-28T09:11:57;102212.03;;;5.11;100.00
41898;BME280;27576;53.366;-1.498;2023-02-28T09:14:22;102181.97;;;4.97;100.00
41898;BME280;27576;53.366;-1.498;2023-02-28T09:16:48;102203.91;;;5.05;100.00
41898;BME280;27576;53.366;-1.498;2023-02-28T09:19:13;102214.88;;;5.16;100.00
41898;BME280;27576;53.366;-1.498;2023-02-28T09:21:39;102216.94;;;5.22;100.00
41898;BME280;27576;53.366;-1.498;2023-02-28T09:24:04;102180.00;;;5.06;100.00
41898;BME280;27576;53.366;-1.498;2023-02-28T09:26:30;102213.09;;;5.28;100.00
41898;BME280;27576;53.366;-1.498;2023-02-28T09:28:55;102211.19;;;5.26;100.00
41898;BME280;27576;53.366;-1.498;2023-02-28T09:31:24;102222.84;;;5.34;100.00
41898;BME280;27576;53.366;-1.498;2023-02-28T09:33:52;102213.44;;;5.34;100.00
41898;BME280;27576;53.366;-1.498;2023-02-28T09:36:18;102222.66;;;5.44;100.00
41898;BME280;27576;53.366;-1.498;2023-02-28T09:38:44;102196.06;;;5.30;100.00
41898;BME280;27576;53.366;-1.498;2023-02-28T09:41:15;102220.38;;;5.49;100.00
41898;BME280;27576;53.366;-1.498;2023-02-28T09:43:44;102191.91;;;5.32;100.00
41898;BME280;27576;53.366;-1.498;2023-02-28T09:46:26;102226.59;;;5.52;100.00
41898;BME280;27576;53.366;-1.498;2023-02-28T09:48:52;102223.31;;;5.55;100.00
41898;BME280;27576;53.366;-1.498;2023-02-28T09:53:49;102218.53;;;5.61;100.00
41898;BME280;27576;53.366;-1.498;2023-02-28T09:56:28;102223.19;;;5.66;100.00
41898;BME280;27576;53.366;-1.498;2023-02-28T10:07:17;102224.63;;;5.76;100.00
41898;BME280;27576;53.366;-1.498;2023-02-28T10:09:47;102238.38;;;5.90;100.00
41898;BME280;27576;53.366;-1.498;2023-02-28T10:12:16;102227.19;;;5.89;100.00
41898;BME280;27576;53.366;-1.498;2023-02-28T10:14:45;102244.78;;;5.97;100.00
41898;BME280;27576;53.366;-1.498;2023-02-28T10:17:16;102217.03;;;5.78;100.00
41898;BME280;27576;53.366;-1.498;2023-02-28T10:24:52;102249.94;;;5.97;100.00
41898;BME280;27576;53.366;-1.498;2023-02-28T10:27:25;102244.00;;;5.98;100.00
41898;BME280;27576;53.366;-1.498;2023-02-28T10:29:58;102236.56;;;5.89;100.00
41898;BME280;27576;53.366;-1.498;2023-02-28T10:35:14;102241.78;;;6.04;100.00
41898;BME280;27576;53.366;-1.498;2023-02-28T10:37:45;102201.34;;;6.01;100.00
41898;BME280;27576;53.366;-1.498;2023-02-28T10:43:03;102227.47;;;6.52;100.00
41898;BME280;27576;53.366;-1.498;2023-02-28T10:45:31;102216.09;;;6.63;100.00
41898;BME280;27576;53.366;-1.498;2023-02-28T10:58:26;102197.13;;;6.61;100.00
41898;BME280;27576;53.366;-1.498;2023-02-28T11:00:52;102173.25;;;6.49;100.00
41898;BME280;27576;53.366;-1.498;2023-02-28T11:03:24;102213.59;;;6.79;100.00
41898;BME280;27576;53.366;-1.498;2023-02-28T11:05:50;102218.25;;;6.85;100.00
41898;BME280;27576;53.366;-1.498;2023-02-28T11:08:17;102223.72;;;6.91;100.00
41898;BME280;27576;53.366;-1.498;2023-02-28T11:10:48;102217.88;;;6.94;100.00
41898;BME280;27576;53.366;-1.498;2023-02-28T11:13:20;102215.38;;;6.95;100.00
41898;BME280;27576;53.366;-1.498;2023-02-28T11:15:55;102207.56;;;6.94;100.00
41898;BME280;27576;53.366;-1.498;2023-02-28T11:18:30;102221.56;;;6.99;100.00
41898;BME280;27576;53.366;-1.498;2023-02-28T11:21:01;102175.69;;;6.62;100.00
41898;BME280;27576;53.366;-1.498;2023-02-28T11:23:30;102207.25;;;6.73;100.00
41898;BME280;27576;53.366;-1.498;2023-02-28T11:26:01;102213.97;;;6.71;100.00
41898;BME280;27576;53.366;-1.498;2023-02-28T11:28:38;102188.03;;;6.68;100.00
41898;BME280;27576;53.366;-1.498;2023-02-28T11:33:51;102207.78;;;7.13;100.00
41898;BME280;27576;53.366;-1.498;2023-02-28T11:36:21;102169.50;;;7.04;100.00
41898;BME280;27576;53.366;-1.498;2023-02-28T11:38:51;102203.50;;;7.45;100.00
41898;BME280;27576;53.366;-1.498;2023-02-28T11:49:48;102187.81;;;7.73;100.00
41898;BME280;27576;53.366;-1.498;2023-02-28T11:52:48;102180.06;;;7.89;100.00
41898;BME280;27576;53.366;-1.498;2023-02-28T11:55:20;102184.50;;;7.92;100.00
41898;BME280;27576;53.366;-1.498;2023-02-28T12:04:17;102176.50;;;7.54;100.00
41898;BME280;27576;53.366;-1.498;2023-02-28T12:12:23;102159.41;;;7.40;100.00
41898;BME280;27576;53.366;-1.498;2023-02-28T12:15:14;102162.06;;;7.58;100.00
41898;BME280;27576;53.366;-1.498;2023-02-28T12:28:42;102145.78;;;7.92;100.00
41898;BME280;27576;53.366;-1.498;2023-02-28T12:33:48;102133.56;;;7.71;100.00
41898;BME280;27576;53.366;-1.498;2023-02-28T12:36:18;102128.56;;;7.74;100.00
41898;BME280;27576;53.366;-1.498;2023-02-28T12:39:04;102107.59;;;7.68;100.00
41898;BME280;27576;53.366;-1.498;2023-02-28T12:41:44;102125.31;;;8.12;100.00
41898;BME280;27576;53.366;-1.498;2023-02-28T12:44:26;102109.88;;;8.30;100.00
41898;BME280;27576;53.366;-1.498;2023-02-28T12:46:59;102112.78;;;8.54;100.00
41898;BME280;27576;53.366;-1.498;2023-02-28T12:49:30;102101.63;;;8.55;100.00
41898;BME280;27576;53.366;-1.498;2023-02-28T12:51:57;102100.09;;;8.59;100.00
41898;BME280;27576;53.366;-1.498;2023-02-28T12:59:56;102065.25;;;8.51;100.00
41898;BME280;27576;53.366;-1.498;2023-02-28T13:10:57;102081.75;;;7.84;100.00
41898;BME280;27576;53.366;-1.498;2023-02-28T13:13:25;102079.66;;;7.77;100.00
41898;BME280;27576;53.366;-1.498;2023-02-28T13:16:09;102058.59;;;7.52;100.00
41898;BME280;27576;53.366;-1.498;2023-02-28T13:18:44;102085.81;;;7.63;100.00
41898;BME280;27576;53.366;-1.498;2023-02-28T13:21:23;102060.13;;;7.48;100.00
41898;BME280;27576;53.366;-1.498;2023-02-28T13:24:03;102063.34;;;7.44;100.00
41898;BME280;27576;53.366;-1.498;2023-02-28T13:34:37;102070.97;;;7.43;100.00
41898;BME280;27576;53.366;-1.498;2023-02-28T13:39:52;102081.63;;;7.49;100.00
41898;BME280;27576;53.366;-1.498;2023-02-28T13:47:58;102039.25;;;7.27;100.00
41898;BME280;27576;53.366;-1.498;2023-02-28T13:55:51;102058.41;;;7.65;100.00
41898;BME280;27576;53.366;-1.498;2023-02-28T13:58:49;102055.59;;;7.60;100.00
41898;BME280;27576;53.366;-1.498;2023-02-28T14:01:23;102062.38;;;7.42;100.00
41898;BME280;27576;53.366;-1.498;2023-02-28T14:06:30;102057.16;;;7.08;100.00
41898;BME280;27576;53.366;-1.498;2023-02-28T14:11:32;102052.09;;;6.78;100.00
41898;BME280;27576;53.366;-1.498;2023-02-28T14:13:59;102061.09;;;6.70;100.00
41898;BME280;27576;53.366;-1.498;2023-02-28T14:16:41;102008.19;;;6.29;100.00
41898;BME280;27576;53.366;-1.498;2023-02-28T14:19:23;102059.38;;;6.54;100.00
41898;BME280;27576;53.366;-1.498;2023-02-28T14:22:05;102062.66;;;6.52;100.00
41898;BME280;27576;53.366;-1.498;2023-02-28T14:30:40;102065.19;;;6.67;100.00
41898;BME280;27576;53.366;-1.498;2023-02-28T14:33:31;102070.38;;;6.83;100.00
41898;BME280;27576;53.366;-1.498;2023-02-28T14:36:22;102055.56;;;6.95;100.00
41898;BME280;27576;53.366;-1.498;2023-02-28T14:38:56;102025.47;;;6.94;100.00
41898;BME280;27576;53.366;-1.498;2023-02-28T14:41:28;102064.47;;;7.33;100.00
41898;BME280;27576;53.366;-1.498;2023-02-28T14:43:59;102057.84;;;7.38;100.00
41898;BME280;27576;53.366;-1.498;2023-02-28T14:46:30;102022.25;;;7.14;100.00
41898;BME280;27576;53.366;-1.498;2023-02-28T14:48:58;102043.13;;;7.19;100.00
41898;BME280;27576;53.366;-1.498;2023-02-28T14:51:23;102046.25;;;7.13;100.00
41898;BME280;27576;53.366;-1.498;2023-02-28T14:53:56;102062.31;;;7.08;100.00
41898;BME280;27576;53.366;-1.498;2023-02-28T14:56:29;102053.91;;;6.96;100.00
41898;BME280;27576;53.366;-1.498;2023-02-28T14:58:56;102038.41;;;6.79;100.00
41898;BME280;27576;53.366;-1.498;2023-02-28T15:01:24;102051.03;;;6.75;100.00
41898;BME280;27576;53.366;-1.498;2023-02-28T15:04:05;102054.44;;;6.74;100.00
41898;BME280;27576;53.366;-1.498;2023-02-28T15:06:32;102047.81;;;6.79;100.00
41898;BME280;27576;53.366;-1.498;2023-02-28T15:09:16;102044.84;;;6.87;100.00
41898;BME280;27576;53.366;-1.498;2023-02-28T15:11:45;102038.94;;;7.05;100.00
41898;BME280;27576;53.366;-1.498;2023-02-28T15:14:20;102040.44;;;7.34;100.00
41898;BME280;27576;53.366;-1.498;2023-02-28T15:16:52;102023.69;;;7.42;100.00
41898;BME280;27576;53.366;-1.498;2023-02-28T15:19:32;102022.78;;;7.42;100.00